createdAt,value
2017-11-03T00:00:40.487Z,12.13
2017-11-03T00:01:40.803Z,12.2
2017-11-03T00:02:40.482Z,12.2
2017-11-03T00:03:40.808Z,12.17
2017-11-03T00:04:40.480Z,12.25
2017-11-03T00:05:40.175Z,12.2
2017-11-03T00:06:40.796Z,12.2
2017-11-03T00:07:40.795Z,12.21
2017-11-03T00:08:40.802Z,12.18
2017-11-03T00:09:40.494Z,12.24
2017-11-03T00:10:40.494Z,12.22
2017-11-03T00:11:40.463Z,12.27
2017-11-03T00:12:40.827Z,12.22
2017-11-03T00:13:40.797Z,12.2
2017-11-03T00:14:40.453Z,12.22
2017-11-03T00:15:40.483Z,12.28
2017-11-03T00:16:40.459Z,12.28
2017-11-03T00:17:40.765Z,12.18
2017-11-03T00:18:40.454Z,12.29
2017-11-03T00:19:40.446Z,12.24
2017-11-03T00:20:40.785Z,12.22
2017-11-03T00:21:40.774Z,12.18
2017-11-03T00:22:40.125Z,12.18
2017-11-03T00:23:40.436Z,12.22
2017-11-03T00:24:40.433Z,12.21
2017-11-03T00:25:40.773Z,12.18
2017-11-03T00:26:40.436Z,12.18
2017-11-03T00:27:40.746Z,12.18
2017-11-03T00:28:40.434Z,12.21
2017-11-03T00:29:40.750Z,12.15
2017-11-03T00:30:41.428Z,12.12
2017-11-03T00:31:40.421Z,12.15
2017-11-03T00:32:40.433Z,12.17
2017-11-03T00:33:40.753Z,12.17
2017-11-03T00:34:40.414Z,12.22
2017-11-03T00:35:40.747Z,12.18
2017-11-03T00:36:40.747Z,12.21
2017-11-03T00:37:40.743Z,12.18
2017-11-03T00:38:40.408Z,12.24
2017-11-03T00:39:40.406Z,12.2
2017-11-03T00:40:40.403Z,12.21
2017-11-03T00:41:40.725Z,12.2
2017-11-03T00:42:40.127Z,12.1
2017-11-03T00:43:40.403Z,12.07
2017-11-03T00:44:40.400Z,12.2
2017-11-03T00:45:42.557Z,12.17
2017-11-03T00:46:40.389Z,12.18
2017-11-03T00:47:40.388Z,12.07
2017-11-03T00:48:40.395Z,12.04
2017-11-03T00:49:40.704Z,12.06
2017-11-03T00:50:40.706Z,12.03
2017-11-03T00:51:40.699Z,12.09
2017-11-03T00:52:40.709Z,12.09
2017-11-03T00:53:40.379Z,12.02
2017-11-03T00:54:40.699Z,12
2017-11-03T00:55:40.371Z,12.09
2017-11-03T00:56:40.693Z,12.09
2017-11-03T00:57:40.698Z,12.09
2017-11-03T00:58:40.710Z,12.06
2017-11-03T00:59:40.680Z,12.02
2017-11-03T01:00:40.409Z,12.02
2017-11-03T01:01:40.675Z,11.99
2017-11-03T01:02:40.358Z,12.06
2017-11-03T01:03:40.356Z,11.97
2017-11-03T01:04:41.020Z,12.06
2017-11-03T01:05:40.363Z,12.02
2017-11-03T01:06:40.358Z,12.02
2017-11-03T01:07:40.675Z,12.04
2017-11-03T01:08:40.034Z,11.97
2017-11-03T01:09:40.673Z,12.02
2017-11-03T01:10:40.677Z,11.99
2017-11-03T01:11:40.656Z,12
2017-11-03T01:12:40.340Z,12.03
2017-11-03T01:13:40.660Z,11.99
2017-11-03T01:14:40.014Z,12.09
2017-11-03T01:15:40.626Z,12.03
2017-11-03T01:16:40.009Z,11.95
2017-11-03T01:17:40.642Z,12.02
2017-11-03T01:18:40.649Z,12.06
2017-11-03T01:19:40.636Z,11.97
2017-11-03T01:20:40.325Z,12
2017-11-03T01:21:40.632Z,12.09
2017-11-03T01:22:40.633Z,12.09
2017-11-03T01:23:40.631Z,12.03
2017-11-03T01:24:40.625Z,12.09
2017-11-03T01:25:40.638Z,12.09
2017-11-03T01:26:40.624Z,12.04
2017-11-03T01:27:40.640Z,12.15
2017-11-03T01:28:40.625Z,12.04
2017-11-03T01:29:40.299Z,12.06
2017-11-03T01:30:40.918Z,12.13
2017-11-03T01:31:40.288Z,12.12
2017-11-03T01:32:40.294Z,12.09
2017-11-03T01:33:40.604Z,12.1
2017-11-03T01:34:40.330Z,12.04
2017-11-03T01:35:40.292Z,12.12
2017-11-03T01:36:40.287Z,12
2017-11-03T01:37:40.275Z,12.06
2017-11-03T01:38:40.601Z,12.07
2017-11-03T01:39:40.600Z,11.97
2017-11-03T01:40:40.593Z,12.04
2017-11-03T01:41:40.276Z,11.99
2017-11-03T01:42:40.600Z,12.03
2017-11-03T01:43:40.588Z,12.04
2017-11-03T01:44:40.268Z,12
2017-11-03T01:45:40.262Z,12
2017-11-03T01:46:40.264Z,11.99
2017-11-03T01:47:40.595Z,12.03
2017-11-03T01:48:40.586Z,11.91
2017-11-03T01:49:39.941Z,11.99
2017-11-03T01:50:39.946Z,11.86
2017-11-03T01:51:40.277Z,11.83
2017-11-03T01:52:40.569Z,11.86
2017-11-03T01:53:40.592Z,11.87
2017-11-03T01:54:40.240Z,11.88
2017-11-03T01:55:40.566Z,11.81
2017-11-03T01:56:40.247Z,11.8
2017-11-03T01:57:40.241Z,11.83
2017-11-03T01:58:40.561Z,11.77
2017-11-03T01:59:40.548Z,11.78
2017-11-03T02:00:40.565Z,11.75
2017-11-03T02:01:43.707Z,11.69
2017-11-03T02:02:40.235Z,11.77
2017-11-03T02:03:40.223Z,11.77
2017-11-03T02:04:40.225Z,11.77
2017-11-03T02:05:40.540Z,11.69
2017-11-03T02:06:40.546Z,11.75
2017-11-03T02:07:40.540Z,11.72
2017-11-03T02:08:40.548Z,11.69
2017-11-03T02:09:39.891Z,11.75
2017-11-03T02:10:40.211Z,11.73
2017-11-03T02:11:40.527Z,11.66
2017-11-03T02:12:40.517Z,11.75
2017-11-03T02:13:40.203Z,11.69
2017-11-03T02:14:40.519Z,11.68
2017-11-03T02:15:40.518Z,11.66
2017-11-03T02:16:42.289Z,11.75
2017-11-03T02:17:40.500Z,11.7
2017-11-03T02:18:40.230Z,11.7
2017-11-03T02:19:40.498Z,11.72
2017-11-03T02:20:39.852Z,11.78
2017-11-03T02:21:40.179Z,11.72
2017-11-03T02:22:40.179Z,11.77
2017-11-03T02:23:40.171Z,11.65
2017-11-03T02:24:40.492Z,11.77
2017-11-03T02:25:40.166Z,11.68
2017-11-03T02:26:40.506Z,11.81
2017-11-03T02:27:40.476Z,11.73
2017-11-03T02:28:40.167Z,11.81
2017-11-03T02:29:40.471Z,11.8
2017-11-03T02:30:40.475Z,11.77
2017-11-03T02:31:40.166Z,11.8
2017-11-03T02:32:40.157Z,11.83
2017-11-03T02:33:40.466Z,11.8
2017-11-03T02:34:40.462Z,11.8
2017-11-03T02:35:40.460Z,11.73
2017-11-03T02:36:40.158Z,11.81
2017-11-03T02:37:39.807Z,11.83
2017-11-03T02:38:40.450Z,11.77
2017-11-03T02:39:40.447Z,11.84
2017-11-03T02:40:40.441Z,11.84
2017-11-03T02:41:40.455Z,11.84
2017-11-03T02:42:40.442Z,11.86
2017-11-03T02:43:40.151Z,11.86
2017-11-03T02:44:40.117Z,11.78
2017-11-03T02:45:40.116Z,11.88
2017-11-03T02:46:40.431Z,11.86
2017-11-03T02:47:40.424Z,11.83
2017-11-03T02:48:40.429Z,11.81
2017-11-03T02:49:40.415Z,11.83
2017-11-03T02:50:40.420Z,11.84
2017-11-03T02:51:40.106Z,11.87
2017-11-03T02:52:40.409Z,11.84
2017-11-03T02:53:40.410Z,11.83
2017-11-03T02:54:40.121Z,11.81
2017-11-03T02:55:40.113Z,11.8
2017-11-03T02:56:40.405Z,11.83
2017-11-03T02:57:40.073Z,11.81
2017-11-03T02:58:40.404Z,11.8
2017-11-03T02:59:39.759Z,11.83
2017-11-03T03:00:40.074Z,11.84
2017-11-03T03:01:40.069Z,11.8
2017-11-03T03:02:40.072Z,11.78
2017-11-03T03:03:40.390Z,11.81
2017-11-03T03:04:40.388Z,11.86
2017-11-03T03:05:40.397Z,11.84
2017-11-03T03:06:40.058Z,11.77
2017-11-03T03:07:40.389Z,11.75
2017-11-03T03:08:40.045Z,11.77
2017-11-03T03:09:40.049Z,11.8
2017-11-03T03:10:40.399Z,11.72
2017-11-03T03:11:40.366Z,11.77
2017-11-03T03:12:40.363Z,11.78
2017-11-03T03:13:40.033Z,11.83
2017-11-03T03:14:40.355Z,11.75
2017-11-03T03:15:40.034Z,11.78
2017-11-03T03:16:40.354Z,11.81
2017-11-03T03:17:43.380Z,11.77
2017-11-03T03:18:40.343Z,11.81
2017-11-03T03:19:40.345Z,11.78
2017-11-03T03:20:40.336Z,11.77
2017-11-03T03:21:40.346Z,11.77
2017-11-03T03:22:40.339Z,11.83
2017-11-03T03:23:40.330Z,11.81
2017-11-03T03:24:40.329Z,11.83
2017-11-03T03:25:39.688Z,11.73
2017-11-03T03:26:39.692Z,11.75
2017-11-03T03:27:39.998Z,11.75
2017-11-03T03:28:40.315Z,11.69
2017-11-03T03:29:39.996Z,11.73
2017-11-03T03:30:40.317Z,11.81
2017-11-03T03:31:40.319Z,11.72
2017-11-03T03:32:39.992Z,11.75
2017-11-03T03:33:40.311Z,11.81
2017-11-03T03:34:40.301Z,11.81
2017-11-03T03:35:39.971Z,11.72
2017-11-03T03:36:40.290Z,11.72
2017-11-03T03:37:40.298Z,11.78
2017-11-03T03:38:39.975Z,11.75
2017-11-03T03:39:40.291Z,11.73
2017-11-03T03:40:40.295Z,11.72
2017-11-03T03:41:40.296Z,11.78
2017-11-03T03:42:40.311Z,11.69
2017-11-03T03:43:40.283Z,11.73
2017-11-03T03:44:39.952Z,11.68
2017-11-03T03:45:40.285Z,11.68
2017-11-03T03:46:39.947Z,11.73
2017-11-03T03:47:42.366Z,11.63
2017-11-03T03:48:40.260Z,11.63
2017-11-03T03:49:40.280Z,11.54
2017-11-03T03:50:40.267Z,11.6
2017-11-03T03:51:40.259Z,11.54
2017-11-03T03:52:39.622Z,11.6
2017-11-03T03:53:39.952Z,11.57
2017-11-03T03:54:40.247Z,11.59
2017-11-03T03:55:39.612Z,11.51
2017-11-03T03:56:39.924Z,11.54
2017-11-03T03:57:39.929Z,11.51
2017-11-03T03:58:39.919Z,11.59
2017-11-03T03:59:40.258Z,11.51
2017-11-03T04:00:39.930Z,11.48
2017-11-03T04:01:39.912Z,11.47
2017-11-03T04:02:39.904Z,11.47
2017-11-03T04:03:40.236Z,11.44
2017-11-03T04:04:40.235Z,11.43
2017-11-03T04:05:40.222Z,11.4
2017-11-03T04:06:40.219Z,11.44
2017-11-03T04:07:40.230Z,11.37
2017-11-03T04:08:39.901Z,11.52
2017-11-03T04:09:40.210Z,11.55
2017-11-03T04:10:39.892Z,11.41
2017-11-03T04:11:39.889Z,11.47
2017-11-03T04:12:40.213Z,11.45
2017-11-03T04:13:40.205Z,11.47
2017-11-03T04:14:39.882Z,11.4
2017-11-03T04:15:39.550Z,11.35
2017-11-03T04:16:40.205Z,11.33
2017-11-03T04:17:39.880Z,11.4
2017-11-03T04:18:41.414Z,11.37
2017-11-03T04:19:40.196Z,11.43
2017-11-03T04:20:39.862Z,11.44
2017-11-03T04:21:40.183Z,11.4
2017-11-03T04:22:39.872Z,11.36
2017-11-03T04:23:40.204Z,11.47
2017-11-03T04:24:40.174Z,11.44
2017-11-03T04:25:39.849Z,11.35
2017-11-03T04:26:40.171Z,11.33
2017-11-03T04:27:40.163Z,11.43
2017-11-03T04:28:40.164Z,11.33
2017-11-03T04:29:39.840Z,11.41
2017-11-03T04:30:40.159Z,11.37
2017-11-03T04:31:40.168Z,11.37
2017-11-03T04:32:40.154Z,11.35
2017-11-03T04:33:40.696Z,11.35
2017-11-03T04:34:39.822Z,11.3
2017-11-03T04:35:39.831Z,11.4
2017-11-03T04:36:40.149Z,11.36
2017-11-03T04:37:39.820Z,11.36
2017-11-03T04:38:40.154Z,11.4
2017-11-03T04:39:39.814Z,11.41
2017-11-03T04:40:40.138Z,11.35
2017-11-03T04:41:40.145Z,11.37
2017-11-03T04:42:39.805Z,11.33
2017-11-03T04:43:39.797Z,11.41
2017-11-03T04:44:40.131Z,11.37
2017-11-03T04:45:39.792Z,11.37
2017-11-03T04:46:39.791Z,11.37
2017-11-03T04:47:39.463Z,11.32
2017-11-03T04:48:39.794Z,11.33
2017-11-03T04:49:39.788Z,11.36
2017-11-03T04:50:40.107Z,11.41
2017-11-03T04:51:40.103Z,11.33
2017-11-03T04:52:40.099Z,11.33
2017-11-03T04:53:39.766Z,11.3
2017-11-03T04:54:40.092Z,11.33
2017-11-03T04:55:40.098Z,11.44
2017-11-03T04:56:39.759Z,11.47
2017-11-03T04:57:40.085Z,11.35
2017-11-03T04:58:39.770Z,11.41
2017-11-03T04:59:39.433Z,11.37
2017-11-03T05:00:39.754Z,11.45
2017-11-03T05:01:39.742Z,11.37
2017-11-03T05:02:39.741Z,11.36
2017-11-03T05:03:40.061Z,11.41
2017-11-03T05:04:40.074Z,11.43
2017-11-03T05:05:39.739Z,11.41
2017-11-03T05:06:39.728Z,11.37
2017-11-03T05:07:40.055Z,11.4
2017-11-03T05:08:39.749Z,11.36
2017-11-03T05:09:40.041Z,11.44
2017-11-03T05:10:39.722Z,11.33
2017-11-03T05:11:40.039Z,11.37
2017-11-03T05:12:40.033Z,11.48
2017-11-03T05:13:39.393Z,11.35
2017-11-03T05:14:40.032Z,11.41
2017-11-03T05:15:40.039Z,11.32
2017-11-03T05:16:40.034Z,11.35
2017-11-03T05:17:39.692Z,11.35
2017-11-03T05:18:39.692Z,11.37
2017-11-03T05:19:42.886Z,11.37
2017-11-03T05:20:39.688Z,11.43
2017-11-03T05:21:39.688Z,11.29
2017-11-03T05:22:40.015Z,11.37
2017-11-03T05:23:40.019Z,11.32
2017-11-03T05:24:39.994Z,11.36
2017-11-03T05:25:39.677Z,11.37
2017-11-03T05:26:39.998Z,11.43
2017-11-03T05:27:39.995Z,11.35
2017-11-03T05:28:39.992Z,11.4
2017-11-03T05:29:39.989Z,11.4
2017-11-03T05:30:39.983Z,11.41
2017-11-03T05:31:39.665Z,11.48
2017-11-03T05:32:39.657Z,11.37
2017-11-03T05:33:39.971Z,11.4
2017-11-03T05:34:39.973Z,11.48
2017-11-03T05:35:40.003Z,11.43
2017-11-03T05:36:39.979Z,11.36
2017-11-03T05:37:39.634Z,11.45
2017-11-03T05:38:39.635Z,11.44
2017-11-03T05:39:39.310Z,11.37
2017-11-03T05:40:39.960Z,11.44
2017-11-03T05:41:39.951Z,11.47
2017-11-03T05:42:39.946Z,11.45
2017-11-03T05:43:39.620Z,11.43
2017-11-03T05:44:39.633Z,11.44
2017-11-03T05:45:39.934Z,11.37
2017-11-03T05:46:39.952Z,11.41
2017-11-03T05:47:39.952Z,11.33
2017-11-03T05:48:39.926Z,11.35
2017-11-03T05:49:39.931Z,11.32
2017-11-03T05:50:39.613Z,11.36
2017-11-03T05:51:39.923Z,11.33
2017-11-03T05:52:39.918Z,11.41
2017-11-03T05:53:39.595Z,11.3
2017-11-03T05:54:39.589Z,11.35
2017-11-03T05:55:39.273Z,11.37
2017-11-03T05:56:39.907Z,11.33
2017-11-03T05:57:39.911Z,11.35
2017-11-03T05:58:39.580Z,11.33
2017-11-03T05:59:39.894Z,11.32
2017-11-03T06:00:39.901Z,11.35
2017-11-03T06:01:39.895Z,11.25
2017-11-03T06:02:39.893Z,11.36
2017-11-03T06:03:39.562Z,11.32
2017-11-03T06:04:39.562Z,11.29
2017-11-03T06:05:39.883Z,11.33
2017-11-03T06:06:39.882Z,11.32
2017-11-03T06:07:39.870Z,11.22
2017-11-03T06:08:39.869Z,11.26
2017-11-03T06:09:39.547Z,11.25
2017-11-03T06:10:39.876Z,11.22
2017-11-03T06:11:39.890Z,11.17
2017-11-03T06:12:39.537Z,11.22
2017-11-03T06:13:39.869Z,11.19
2017-11-03T06:14:39.854Z,11.23
2017-11-03T06:15:39.543Z,11.22
2017-11-03T06:16:39.205Z,11.18
2017-11-03T06:17:39.553Z,11.19
2017-11-03T06:18:39.520Z,11.26
2017-11-03T06:19:39.839Z,11.25
2017-11-03T06:20:41.625Z,11.23
2017-11-03T06:21:39.831Z,11.29
2017-11-03T06:22:39.508Z,11.25
2017-11-03T06:23:39.827Z,11.26
2017-11-03T06:24:39.817Z,11.27
2017-11-03T06:25:39.528Z,11.35
2017-11-03T06:26:39.494Z,11.27
2017-11-03T06:27:39.813Z,11.29
2017-11-03T06:28:39.489Z,11.32
2017-11-03T06:29:39.804Z,11.32
2017-11-03T06:30:39.183Z,11.35
2017-11-03T06:31:39.477Z,11.37
2017-11-03T06:32:39.480Z,11.35
2017-11-03T06:33:39.796Z,11.4
2017-11-03T06:34:39.791Z,11.3
2017-11-03T06:35:39.807Z,11.37
2017-11-03T06:36:39.479Z,11.43
2017-11-03T06:37:39.463Z,11.43
2017-11-03T06:38:39.466Z,11.4
2017-11-03T06:39:39.785Z,11.32
2017-11-03T06:40:39.462Z,11.35
2017-11-03T06:41:39.798Z,11.3
2017-11-03T06:42:39.774Z,11.37
2017-11-03T06:43:39.458Z,11.4
2017-11-03T06:44:39.774Z,11.4
2017-11-03T06:45:39.765Z,11.37
2017-11-03T06:46:39.762Z,11.4
2017-11-03T06:47:39.759Z,11.36
2017-11-03T06:48:39.752Z,11.43
2017-11-03T06:49:39.750Z,11.43
2017-11-03T06:50:40.525Z,11.43
2017-11-03T06:51:39.743Z,11.41
2017-11-03T06:52:39.423Z,11.44
2017-11-03T06:53:39.101Z,11.5
2017-11-03T06:54:39.736Z,11.48
2017-11-03T06:55:39.750Z,11.44
2017-11-03T06:56:39.733Z,11.45
2017-11-03T06:57:39.729Z,11.43
2017-11-03T06:58:39.402Z,11.43
2017-11-03T06:59:39.748Z,11.41
2017-11-03T07:00:39.102Z,11.45
2017-11-03T07:01:39.723Z,11.45
2017-11-03T07:02:39.730Z,11.5
2017-11-03T07:03:39.712Z,11.51
2017-11-03T07:04:39.725Z,11.52
2017-11-03T07:05:39.071Z,11.47
2017-11-03T07:06:39.398Z,11.6
2017-11-03T07:07:39.387Z,11.55
2017-11-03T07:08:39.703Z,11.65
2017-11-03T07:09:39.703Z,11.75
2017-11-03T07:10:39.382Z,11.7
2017-11-03T07:11:39.695Z,11.72
2017-11-03T07:12:39.706Z,11.8
2017-11-03T07:13:39.689Z,11.78
2017-11-03T07:14:39.687Z,11.84
2017-11-03T07:15:39.376Z,11.83
2017-11-03T07:16:39.700Z,11.94
2017-11-03T07:17:39.694Z,11.88
2017-11-03T07:18:39.684Z,11.87
2017-11-03T07:19:39.676Z,11.88
2017-11-03T07:20:39.026Z,11.97
2017-11-03T07:21:40.393Z,12.04
2017-11-03T07:22:39.032Z,11.97
2017-11-03T07:23:39.667Z,11.95
2017-11-03T07:24:39.346Z,12.15
2017-11-03T07:25:39.346Z,12.15
2017-11-03T07:26:39.334Z,12.07
2017-11-03T07:27:39.648Z,12.12
2017-11-03T07:28:39.649Z,12.13
2017-11-03T07:29:39.337Z,12.17
2017-11-03T07:30:39.334Z,12.22
2017-11-03T07:31:39.324Z,12.18
2017-11-03T07:32:39.648Z,12.25
2017-11-03T07:33:39.000Z,12.21
2017-11-03T07:34:39.646Z,12.2
2017-11-03T07:35:39.334Z,12.22
2017-11-03T07:36:39.519Z,12.18
2017-11-03T07:37:38.991Z,12.17
2017-11-03T07:38:39.636Z,12.15
2017-11-03T07:39:39.624Z,12.17
2017-11-03T07:40:39.639Z,12.18
2017-11-03T07:41:39.624Z,12.18
2017-11-03T07:42:39.629Z,12.21
2017-11-03T07:43:39.310Z,12.32
2017-11-03T07:44:38.978Z,12.31
2017-11-03T07:45:39.323Z,12.25
2017-11-03T07:46:39.292Z,12.29
2017-11-03T07:47:39.625Z,12.36
2017-11-03T07:48:38.979Z,12.22
2017-11-03T07:49:39.284Z,12.37
2017-11-03T07:50:39.286Z,12.37
2017-11-03T07:51:42.805Z,12.39
2017-11-03T07:52:39.599Z,12.36
2017-11-03T07:53:39.279Z,12.39
2017-11-03T07:54:39.279Z,12.37
2017-11-03T07:55:39.601Z,12.4
2017-11-03T07:56:39.599Z,12.36
2017-11-03T07:57:38.955Z,12.53
2017-11-03T07:58:39.589Z,12.43
2017-11-03T07:59:39.588Z,12.46
2017-11-03T08:00:39.264Z,12.45
2017-11-03T08:01:39.258Z,12.49
2017-11-03T08:02:39.583Z,12.47
2017-11-03T08:03:39.587Z,12.55
2017-11-03T08:04:39.585Z,12.6
2017-11-03T08:05:38.941Z,12.6
2017-11-03T08:06:39.264Z,12.61
2017-11-03T08:07:39.504Z,12.55
2017-11-03T08:08:38.938Z,12.57
2017-11-03T08:09:39.575Z,12.57
2017-11-03T08:10:39.589Z,12.62
2017-11-03T08:11:39.561Z,12.54
2017-11-03T08:12:39.253Z,12.54
2017-11-03T08:13:39.236Z,12.55
2017-11-03T08:14:39.235Z,12.53
2017-11-03T08:15:39.580Z,12.64
2017-11-03T08:16:39.242Z,12.62
2017-11-03T08:17:39.234Z,12.62
2017-11-03T08:18:39.562Z,12.62
2017-11-03T08:19:39.228Z,12.68
2017-11-03T08:20:39.557Z,12.76
2017-11-03T08:21:39.539Z,12.73
2017-11-03T08:22:39.797Z,12.82
2017-11-03T08:23:39.547Z,12.85
2017-11-03T08:24:39.550Z,12.94
2017-11-03T08:25:39.221Z,12.94
2017-11-03T08:26:39.546Z,13.03
2017-11-03T08:27:39.222Z,12.97
2017-11-03T08:28:39.217Z,12.97
2017-11-03T08:29:39.537Z,12.97
2017-11-03T08:30:39.226Z,13.01
2017-11-03T08:31:39.212Z,13
2017-11-03T08:32:39.211Z,12.94
2017-11-03T08:33:39.203Z,12.85
2017-11-03T08:34:39.541Z,12.93
2017-11-03T08:35:39.611Z,12.9
2017-11-03T08:36:39.198Z,12.9
2017-11-03T08:37:39.202Z,12.86
2017-11-03T08:38:38.879Z,12.98
2017-11-03T08:39:39.521Z,13.04
2017-11-03T08:40:39.221Z,12.97
2017-11-03T08:41:39.520Z,12.95
2017-11-03T08:42:39.513Z,13
2017-11-03T08:43:39.513Z,13
2017-11-03T08:44:39.198Z,13
2017-11-03T08:45:39.528Z,13.04
2017-11-03T08:46:39.214Z,13.05
2017-11-03T08:47:39.196Z,13
2017-11-03T08:48:39.176Z,13
2017-11-03T08:49:39.495Z,13.04
2017-11-03T08:50:38.869Z,13.04
2017-11-03T08:51:39.172Z,12.95
2017-11-03T08:52:42.354Z,13.03
2017-11-03T08:53:39.167Z,13.01
2017-11-03T08:54:39.168Z,13
2017-11-03T08:55:39.507Z,13.03
2017-11-03T08:56:39.168Z,13.13
2017-11-03T08:57:38.839Z,13.13
2017-11-03T08:58:39.486Z,13.15
2017-11-03T08:59:39.172Z,13.18
2017-11-03T09:00:39.500Z,13.2
2017-11-03T09:01:39.162Z,13.2
2017-11-03T09:02:39.479Z,13.22
2017-11-03T09:03:39.154Z,13.27
2017-11-03T09:04:39.489Z,13.3
2017-11-03T09:05:39.479Z,13.28
2017-11-03T09:06:39.487Z,13.46
2017-11-03T09:07:39.515Z,13.39
2017-11-03T09:08:39.481Z,13.5
2017-11-03T09:09:39.151Z,13.46
2017-11-03T09:10:39.484Z,13.54
2017-11-03T09:11:39.147Z,13.53
2017-11-03T09:12:39.460Z,13.56
2017-11-03T09:13:39.467Z,13.65
2017-11-03T09:14:39.455Z,13.67
2017-11-03T09:15:39.149Z,13.7
2017-11-03T09:16:39.134Z,13.7
2017-11-03T09:17:39.132Z,13.68
2017-11-03T09:18:39.132Z,13.63
2017-11-03T09:19:39.455Z,13.7
2017-11-03T09:20:39.170Z,13.71
2017-11-03T09:21:39.457Z,13.72
2017-11-03T09:22:39.130Z,13.81
2017-11-03T09:23:39.448Z,13.74
2017-11-03T09:24:39.124Z,13.68
2017-11-03T09:25:39.151Z,13.72
2017-11-03T09:26:39.127Z,13.83
2017-11-03T09:27:39.451Z,13.7
2017-11-03T09:28:39.450Z,13.67
2017-11-03T09:29:39.452Z,13.57
2017-11-03T09:30:39.457Z,13.56
2017-11-03T09:31:39.442Z,13.52
2017-11-03T09:32:38.801Z,13.54
2017-11-03T09:33:39.437Z,13.59
2017-11-03T09:34:38.799Z,13.65
2017-11-03T09:35:39.136Z,13.7
2017-11-03T09:36:39.436Z,13.79
2017-11-03T09:37:39.440Z,13.89
2017-11-03T09:38:39.116Z,13.95
2017-11-03T09:39:38.800Z,13.97
2017-11-03T09:40:38.802Z,13.97
2017-11-03T09:41:39.455Z,13.95
2017-11-03T09:42:39.495Z,14.04
2017-11-03T09:43:39.520Z,14.14
2017-11-03T09:44:39.455Z,14.11
2017-11-03T09:45:38.794Z,14.08
2017-11-03T09:46:39.125Z,14.08
2017-11-03T09:47:39.111Z,14.15
2017-11-03T09:48:39.106Z,14.1
2017-11-03T09:49:38.786Z,14.2
2017-11-03T09:50:39.133Z,14.17
2017-11-03T09:51:39.104Z,14.35
2017-11-03T09:52:38.783Z,14.4
2017-11-03T09:53:40.324Z,14.43
2017-11-03T09:54:39.105Z,14.48
2017-11-03T09:55:38.785Z,14.48
2017-11-03T09:56:39.102Z,14.51
2017-11-03T09:57:39.264Z,14.48
2017-11-03T09:58:39.102Z,14.53
2017-11-03T09:59:39.423Z,14.5
2017-11-03T10:00:39.450Z,14.48
2017-11-03T10:01:39.109Z,14.51
2017-11-03T10:02:38.778Z,14.54
2017-11-03T10:03:39.108Z,14.58
2017-11-03T10:04:39.434Z,14.55
2017-11-03T10:05:38.781Z,14.65
2017-11-03T10:06:39.102Z,14.7
2017-11-03T10:07:39.100Z,14.81
2017-11-03T10:08:38.779Z,14.92
2017-11-03T10:09:39.096Z,14.89
2017-11-03T10:10:39.140Z,14.89
2017-11-03T10:11:39.100Z,14.91
2017-11-03T10:12:39.419Z,14.94
2017-11-03T10:13:39.498Z,14.99
2017-11-03T10:14:39.109Z,15.04
2017-11-03T10:15:39.433Z,15.06
2017-11-03T10:16:39.418Z,14.94
2017-11-03T10:17:39.098Z,14.85
2017-11-03T10:18:39.126Z,14.73
2017-11-03T10:19:39.094Z,14.6
2017-11-03T10:20:39.179Z,14.51
2017-11-03T10:21:39.106Z,14.53
2017-11-03T10:22:39.417Z,14.54
2017-11-03T10:23:42.338Z,14.6
2017-11-03T10:24:38.781Z,14.6
2017-11-03T10:25:39.102Z,14.69
2017-11-03T10:26:39.102Z,14.73
2017-11-03T10:27:39.101Z,14.86
2017-11-03T10:28:39.111Z,15
2017-11-03T10:29:39.426Z,15.03
2017-11-03T10:30:39.120Z,15.11
2017-11-03T10:31:39.117Z,15.15
2017-11-03T10:32:39.439Z,15.33
2017-11-03T10:33:39.426Z,15.4
2017-11-03T10:34:39.423Z,15.47
2017-11-03T10:35:39.443Z,15.54
2017-11-03T10:36:38.780Z,15.61
2017-11-03T10:37:39.105Z,15.54
2017-11-03T10:38:39.431Z,15.47
2017-11-03T10:39:39.438Z,15.49
2017-11-03T10:40:39.109Z,15.42
2017-11-03T10:41:39.109Z,15.44
2017-11-03T10:42:39.110Z,15.46
2017-11-03T10:43:39.434Z,15.52
2017-11-03T10:44:39.448Z,15.58
2017-11-03T10:45:38.799Z,15.55
2017-11-03T10:46:39.108Z,15.54
2017-11-03T10:47:38.872Z,15.54
2017-11-03T10:48:38.881Z,15.52
2017-11-03T10:49:39.436Z,15.52
2017-11-03T10:50:39.130Z,15.58
2017-11-03T10:51:39.439Z,15.51
2017-11-03T10:52:39.150Z,15.62
2017-11-03T10:53:39.115Z,15.64
2017-11-03T10:54:38.794Z,15.64
2017-11-03T10:55:39.123Z,15.64
2017-11-03T10:56:39.479Z,15.62
2017-11-03T10:57:39.113Z,15.7
2017-11-03T10:58:39.439Z,15.62
2017-11-03T10:59:39.133Z,15.64
2017-11-03T11:00:39.446Z,15.67
2017-11-03T11:01:39.118Z,15.73
2017-11-03T11:02:39.114Z,15.72
2017-11-03T11:03:39.448Z,15.83
2017-11-03T11:04:38.800Z,15.75
2017-11-03T11:05:39.455Z,15.76
2017-11-03T11:06:39.121Z,15.72
2017-11-03T11:07:39.170Z,15.72
2017-11-03T11:08:39.132Z,15.83
2017-11-03T11:09:38.847Z,15.84
2017-11-03T11:10:39.133Z,15.94
2017-11-03T11:11:39.446Z,16
2017-11-03T11:12:38.806Z,16
2017-11-03T11:13:39.447Z,15.98
2017-11-03T11:14:39.125Z,16
2017-11-03T11:15:39.458Z,15.92
2017-11-03T11:16:39.454Z,15.97
2017-11-03T11:17:39.124Z,16.04
2017-11-03T11:18:39.460Z,16.01
2017-11-03T11:19:40.410Z,15.95
2017-11-03T11:20:38.822Z,16.01
2017-11-03T11:21:39.462Z,16.09
2017-11-03T11:22:38.824Z,16.05
2017-11-03T11:23:39.135Z,16.13
2017-11-03T11:24:39.332Z,16.21
2017-11-03T11:25:39.479Z,16.29
2017-11-03T11:26:38.815Z,16.33
2017-11-03T11:27:38.817Z,16.46
2017-11-03T11:28:39.473Z,16.41
2017-11-03T11:29:39.470Z,16.46
2017-11-03T11:30:39.165Z,16.41
2017-11-03T11:31:39.467Z,16.5
2017-11-03T11:32:39.160Z,16.54
2017-11-03T11:33:39.149Z,16.61
2017-11-03T11:34:39.468Z,16.6
2017-11-03T11:35:39.477Z,16.51
2017-11-03T11:36:39.483Z,16.41
2017-11-03T11:37:39.154Z,16.33
2017-11-03T11:38:39.189Z,16.29
2017-11-03T11:39:39.204Z,16.21
2017-11-03T11:40:39.176Z,16.31
2017-11-03T11:41:39.611Z,16.16
2017-11-03T11:42:39.390Z,16.31
2017-11-03T11:43:39.275Z,16.29
2017-11-03T11:44:38.947Z,16.49
2017-11-03T11:45:39.419Z,16.47
2017-11-03T11:46:39.432Z,16.53
2017-11-03T11:47:39.378Z,16.5
2017-11-03T11:48:39.322Z,16.5
2017-11-03T11:49:39.833Z,16.43
2017-11-03T11:50:38.912Z,16.41
2017-11-03T11:51:38.974Z,16.35
2017-11-03T11:52:39.253Z,16.36
2017-11-03T11:53:39.244Z,16.32
2017-11-03T11:54:42.288Z,16.28
2017-11-03T11:55:39.204Z,16.29
2017-11-03T11:56:39.181Z,16.35
2017-11-03T11:57:39.170Z,16.42
2017-11-03T11:58:39.191Z,16.41
2017-11-03T11:59:39.179Z,16.49
2017-11-03T12:00:39.206Z,16.57
2017-11-03T12:01:39.176Z,16.57
2017-11-03T12:02:39.209Z,16.57
2017-11-03T12:03:39.180Z,16.6
2017-11-03T12:04:39.529Z,16.53
2017-11-03T12:05:39.516Z,16.43
2017-11-03T12:06:39.195Z,16.35
2017-11-03T12:07:39.194Z,16.39
2017-11-03T12:08:38.919Z,16.42
2017-11-03T12:09:39.522Z,16.39
2017-11-03T12:10:39.517Z,16.47
2017-11-03T12:11:39.309Z,16.54
2017-11-03T12:12:38.875Z,16.61
2017-11-03T12:13:39.207Z,16.61
2017-11-03T12:14:39.191Z,16.57
2017-11-03T12:15:39.207Z,16.53
2017-11-03T12:16:39.202Z,16.49
2017-11-03T12:17:39.192Z,16.47
2017-11-03T12:18:39.198Z,16.65
2017-11-03T12:19:39.216Z,16.53
2017-11-03T12:20:39.209Z,16.36
2017-11-03T12:21:39.253Z,16.09
2017-11-03T12:22:39.215Z,16.02
2017-11-03T12:23:39.554Z,15.84
2017-11-03T12:24:39.204Z,15.8
2017-11-03T12:25:42.715Z,15.82
2017-11-03T12:26:39.259Z,15.68
2017-11-03T12:27:39.216Z,15.75
2017-11-03T12:28:39.520Z,15.79
2017-11-03T12:29:39.200Z,15.9
2017-11-03T12:30:39.536Z,16
2017-11-03T12:31:39.535Z,16.05
2017-11-03T12:32:39.212Z,16.16
2017-11-03T12:33:39.525Z,16.2
2017-11-03T12:34:39.206Z,16.35
2017-11-03T12:35:39.213Z,16.47
2017-11-03T12:36:39.530Z,16.51
2017-11-03T12:37:39.529Z,16.64
2017-11-03T12:38:39.543Z,16.57
2017-11-03T12:39:39.537Z,16.68
2017-11-03T12:40:39.229Z,16.71
2017-11-03T12:41:39.213Z,16.72
2017-11-03T12:42:39.236Z,16.68
2017-11-03T12:43:39.218Z,16.75
2017-11-03T12:44:39.251Z,16.71
2017-11-03T12:45:39.557Z,16.74
2017-11-03T12:46:39.544Z,16.74
2017-11-03T12:47:39.552Z,16.64
2017-11-03T12:48:39.962Z,16.64
2017-11-03T12:49:39.620Z,16.68
2017-11-03T12:50:39.235Z,16.68
2017-11-03T12:51:39.221Z,16.69
2017-11-03T12:52:39.543Z,16.79
2017-11-03T12:53:39.552Z,16.78
2017-11-03T12:54:39.563Z,16.86
2017-11-03T12:55:39.553Z,16.86
2017-11-03T12:56:39.546Z,16.86
2017-11-03T12:57:38.919Z,16.68